sensor_id;sensor_type;location;lat;lon;timestamp;temperature;humidity
75357;HTU21D;63946;51.986;5.930;2024-02-15T05:33:55;12.61;83.63
75357;HTU21D;63946;51.986;5.930;2024-02-15T05:36:24;12.61;83.63
75357;HTU21D;63946;51.986;5.930;2024-02-15T05:38:53;12.60;83.72
75357;HTU21D;63946;51.986;5.930;2024-02-15T05:41:23;12.61;83.81
75357;HTU21D;63946;51.986;5.930;2024-02-15T05:43:51;12.61;83.75
75357;HTU21D;63946;51.986;5.930;2024-02-15T05:46:20;12.60;83.75
75357;HTU21D;63946;51.986;5.930;2024-02-15T05:48:49;12.60;83.87
75357;HTU21D;63946;51.986;5.930;2024-02-15T05:51:18;12.60;83.95
75357;HTU21D;63946;51.986;5.930;2024-02-15T05:53:47;12.60;83.91
75357;HTU21D;63946;51.986;5.930;2024-02-15T05:56:15;12.59;84.00
75357;HTU21D;63946;51.986;5.930;2024-02-15T05:58:44;12.60;84.04
75357;HTU21D;63946;51.986;5.930;2024-02-15T06:01:14;12.58;84.16
75357;HTU21D;63946;51.986;5.930;2024-02-15T06:03:42;12.57;84.19
75357;HTU21D;63946;51.986;5.930;2024-02-15T06:06:13;12.56;84.10
75357;HTU21D;63946;51.986;5.930;2024-02-15T06:08:46;12.52;84.22
75357;HTU21D;63946;51.986;5.930;2024-02-15T06:11:18;12.49;84.27
75357;HTU21D;63946;51.986;5.930;2024-02-15T06:13:50;12.44;84.33
75357;HTU21D;63946;51.986;5.930;2024-02-15T06:16:19;12.42;84.50
75357;HTU21D;63946;51.986;5.930;2024-02-15T06:18:48;12.42;84.52
75357;HTU21D;63946;51.986;5.930;2024-02-15T06:21:16;12.41;84.64
75357;HTU21D;63946;51.986;5.930;2024-02-15T06:23:46;12.41;84.76
75357;HTU21D;63946;51.986;5.930;2024-02-15T06:26:15;12.44;84.64
75357;HTU21D;63946;51.986;5.930;2024-02-15T06:28:45;12.44;84.63
75357;HTU21D;63946;51.986;5.930;2024-02-15T06:31:26;12.46;84.58
75357;HTU21D;63946;51.986;5.930;2024-02-15T06:34:08;12.49;84.47
75357;HTU21D;63946;51.986;5.930;2024-02-15T06:36:56;12.49;84.47
75357;HTU21D;63946;51.986;5.930;2024-02-15T06:39:37;12.51;84.43
75357;HTU21D;63946;51.986;5.930;2024-02-15T06:42:16;12.55;84.37
75357;HTU21D;63946;51.986;5.930;2024-02-15T06:44:46;12.55;84.32
75357;HTU21D;63946;51.986;5.930;2024-02-15T06:47:15;12.56;84.17
75357;HTU21D;63946;51.986;5.930;2024-02-15T06:49:48;12.57;84.25
75357;HTU21D;63946;51.986;5.930;2024-02-15T06:52:20;12.58;84.24
75357;HTU21D;63946;51.986;5.930;2024-02-15T06:54:48;12.59;84.30
75357;HTU21D;63946;51.986;5.930;2024-02-15T06:57:18;12.60;84.25
75357;HTU21D;63946;51.986;5.930;2024-02-15T06:59:47;12.59;84.29
75357;HTU21D;63946;51.986;5.930;2024-02-15T07:02:17;12.60;84.21
75357;HTU21D;63946;51.986;5.930;2024-02-15T07:04:46;12.63;84.32
75357;HTU21D;63946;51.986;5.930;2024-02-15T07:07:14;12.62;84.29
75357;HTU21D;63946;51.986;5.930;2024-02-15T07:09:43;12.64;84.30
75357;HTU21D;63946;51.986;5.930;2024-02-15T07:12:12;12.65;84.22
75357;HTU21D;63946;51.986;5.930;2024-02-15T07:14:40;12.66;84.23
75357;HTU21D;63946;51.986;5.930;2024-02-15T07:17:09;12.66;84.23
75357;HTU21D;63946;51.986;5.930;2024-02-15T07:19:42;12.66;84.28
75357;HTU21D;63946;51.986;5.930;2024-02-15T07:22:17;12.67;84.36
75357;HTU21D;63946;51.986;5.930;2024-02-15T07:24:48;12.69;84.29
75357;HTU21D;63946;51.986;5.930;2024-02-15T07:27:18;12.71;84.29
75357;HTU21D;63946;51.986;5.930;2024-02-15T07:29:49;12.72;84.23
75357;HTU21D;63946;51.986;5.930;2024-02-15T07:32:18;12.72;84.29
75357;HTU21D;63946;51.986;5.930;2024-02-15T07:34:46;12.72;84.31
75357;HTU21D;63946;51.986;5.930;2024-02-15T07:37:15;12.74;84.16
75357;HTU21D;63946;51.986;5.930;2024-02-15T07:39:44;12.74;84.17
75357;HTU21D;63946;51.986;5.930;2024-02-15T07:42:13;12.75;84.19
75357;HTU21D;63946;51.986;5.930;2024-02-15T07:44:42;12.77;84.15
75357;HTU21D;63946;51.986;5.930;2024-02-15T07:47:11;12.77;84.20
75357;HTU21D;63946;51.986;5.930;2024-02-15T07:49:41;12.78;84.17
75357;HTU21D;63946;51.986;5.930;2024-02-15T07:52:10;12.77;84.12
75357;HTU21D;63946;51.986;5.930;2024-02-15T07:54:39;12.78;84.25
75357;HTU21D;63946;51.986;5.930;2024-02-15T07:57:11;12.79;84.21
75357;HTU21D;63946;51.986;5.930;2024-02-15T07:59:40;12.80;84.15
75357;HTU21D;63946;51.986;5.930;2024-02-15T08:02:08;12.80;84.12
75357;HTU21D;63946;51.986;5.930;2024-02-15T08:04:38;12.80;84.11
75357;HTU21D;63946;51.986;5.930;2024-02-15T08:07:10;12.81;84.07
75357;HTU21D;63946;51.986;5.930;2024-02-15T08:09:41;12.81;84.15
75357;HTU21D;63946;51.986;5.930;2024-02-15T08:12:10;12.80;84.13
75357;HTU21D;63946;51.986;5.930;2024-02-15T08:14:39;12.81;84.17
75357;HTU21D;63946;51.986;5.930;2024-02-15T08:17:09;12.82;84.07
75357;HTU21D;63946;51.986;5.930;2024-02-15T08:19:39;12.85;84.05
75357;HTU21D;63946;51.986;5.930;2024-02-15T08:22:08;12.84;84.06
75357;HTU21D;63946;51.986;5.930;2024-02-15T08:24:37;12.86;84.04
75357;HTU21D;63946;51.986;5.930;2024-02-15T08:27:06;12.87;84.06
75357;HTU21D;63946;51.986;5.930;2024-02-15T08:29:38;12.88;84.08
75357;HTU21D;63946;51.986;5.930;2024-02-15T08:32:07;12.90;84.19
75357;HTU21D;63946;51.986;5.930;2024-02-15T08:34:37;12.89;84.12
75357;HTU21D;63946;51.986;5.930;2024-02-15T08:37:06;12.90;84.13
75357;HTU21D;63946;51.986;5.930;2024-02-15T08:39:34;12.90;84.16
75357;HTU21D;63946;51.986;5.930;2024-02-15T08:42:03;12.91;84.19
75357;HTU21D;63946;51.986;5.930;2024-02-15T08:44:32;12.93;84.23
75357;HTU21D;63946;51.986;5.930;2024-02-15T08:47:02;12.95;84.23
75357;HTU21D;63946;51.986;5.930;2024-02-15T08:49:30;12.93;84.20
75357;HTU21D;63946;51.986;5.930;2024-02-15T08:51:59;12.96;84.20
75357;HTU21D;63946;51.986;5.930;2024-02-15T08:54:29;12.95;84.18
75357;HTU21D;63946;51.986;5.930;2024-02-15T08:56:58;12.94;84.20
75357;HTU21D;63946;51.986;5.930;2024-02-15T08:59:27;12.94;84.13
75357;HTU21D;63946;51.986;5.930;2024-02-15T09:01:56;12.92;84.15
75357;HTU21D;63946;51.986;5.930;2024-02-15T09:04:26;12.90;84.30
75357;HTU21D;63946;51.986;5.930;2024-02-15T09:06:55;12.90;84.42
75357;HTU21D;63946;51.986;5.930;2024-02-15T09:09:24;12.90;84.45
75357;HTU21D;63946;51.986;5.930;2024-02-15T09:11:53;12.90;84.46
75357;HTU21D;63946;51.986;5.930;2024-02-15T09:14:22;12.91;84.45
75357;HTU21D;63946;51.986;5.930;2024-02-15T09:16:50;12.90;84.43
75357;HTU21D;63946;51.986;5.930;2024-02-15T09:19:19;12.89;84.52
75357;HTU21D;63946;51.986;5.930;2024-02-15T09:21:49;12.90;84.50
75357;HTU21D;63946;51.986;5.930;2024-02-15T09:24:19;12.88;84.43
75357;HTU21D;63946;51.986;5.930;2024-02-15T09:26:51;12.86;84.60
75357;HTU21D;63946;51.986;5.930;2024-02-15T09:29:20;12.87;84.72
75357;HTU21D;63946;51.986;5.930;2024-02-15T09:31:50;12.87;84.61
75357;HTU21D;63946;51.986;5.930;2024-02-15T09:34:18;12.86;84.63
75357;HTU21D;63946;51.986;5.930;2024-02-15T09:36:47;12.81;84.64
75357;HTU21D;63946;51.986;5.930;2024-02-15T09:39:16;12.78;84.73
75357;HTU21D;63946;51.986;5.930;2024-02-15T09:41:45;12.75;84.84
75357;HTU21D;63946;51.986;5.930;2024-02-15T09:44:19;12.75;84.93
75357;HTU21D;63946;51.986;5.930;2024-02-15T09:46:52;12.76;84.90
75357;HTU21D;63946;51.986;5.930;2024-02-15T09:49:23;12.78;84.93
75357;HTU21D;63946;51.986;5.930;2024-02-15T09:51:53;12.78;84.91
75357;HTU21D;63946;51.986;5.930;2024-02-15T09:54:21;12.78;84.90
75357;HTU21D;63946;51.986;5.930;2024-02-15T09:56:50;12.78;84.96
75357;HTU21D;63946;51.986;5.930;2024-02-15T09:59:19;12.79;84.90
75357;HTU21D;63946;51.986;5.930;2024-02-15T10:01:49;12.82;84.87
75357;HTU21D;63946;51.986;5.930;2024-02-15T10:04:17;12.85;84.90
75357;HTU21D;63946;51.986;5.930;2024-02-15T10:06:46;12.86;84.80
75357;HTU21D;63946;51.986;5.930;2024-02-15T10:09:29;12.84;84.78
75357;HTU21D;63946;51.986;5.930;2024-02-15T10:12:00;12.81;84.93
75357;HTU21D;63946;51.986;5.930;2024-02-15T10:14:29;12.81;84.87
75357;HTU21D;63946;51.986;5.930;2024-02-15T10:17:06;12.84;84.76
75357;HTU21D;63946;51.986;5.930;2024-02-15T10:19:39;12.84;84.63
75357;HTU21D;63946;51.986;5.930;2024-02-15T10:22:10;12.87;84.64
75357;HTU21D;63946;51.986;5.930;2024-02-15T10:24:41;12.90;84.67
75357;HTU21D;63946;51.986;5.930;2024-02-15T10:27:09;12.91;84.59
75357;HTU21D;63946;51.986;5.930;2024-02-15T10:29:38;12.92;84.69
75357;HTU21D;63946;51.986;5.930;2024-02-15T10:32:08;12.91;84.61
75357;HTU21D;63946;51.986;5.930;2024-02-15T10:34:46;12.90;84.51
75357;HTU21D;63946;51.986;5.930;2024-02-15T10:37:15;12.88;84.64
75357;HTU21D;63946;51.986;5.930;2024-02-15T10:39:46;12.91;84.71
75357;HTU21D;63946;51.986;5.930;2024-02-15T10:42:16;12.94;84.64
75357;HTU21D;63946;51.986;5.930;2024-02-15T10:44:46;12.96;84.64
75357;HTU21D;63946;51.986;5.930;2024-02-15T10:47:14;12.95;84.54
75357;HTU21D;63946;51.986;5.930;2024-02-15T10:49:45;12.95;84.60
75357;HTU21D;63946;51.986;5.930;2024-02-15T10:52:14;12.97;84.68
75357;HTU21D;63946;51.986;5.930;2024-02-15T10:54:49;13.02;84.71
75357;HTU21D;63946;51.986;5.930;2024-02-15T10:57:21;13.02;84.53
75357;HTU21D;63946;51.986;5.930;2024-02-15T10:59:58;13.02;84.62
75357;HTU21D;63946;51.986;5.930;2024-02-15T11:02:42;13.02;84.68
75357;HTU21D;63946;51.986;5.930;2024-02-15T11:05:14;13.04;84.59
75357;HTU21D;63946;51.986;5.930;2024-02-15T11:07:48;13.06;84.58
75357;HTU21D;63946;51.986;5.930;2024-02-15T11:10:17;13.17;84.53
75357;HTU21D;63946;51.986;5.930;2024-02-15T11:12:46;13.22;84.41
75357;HTU21D;63946;51.986;5.930;2024-02-15T11:18:05;13.27;84.38
75357;HTU21D;63946;51.986;5.930;2024-02-15T11:23:03;13.37;84.24
75357;HTU21D;63946;51.986;5.930;2024-02-15T11:25:36;13.37;84.13
75357;HTU21D;63946;51.986;5.930;2024-02-15T11:30:53;13.45;84.02
75357;HTU21D;63946;51.986;5.930;2024-02-15T11:33:30;13.48;83.99
75357;HTU21D;63946;51.986;5.930;2024-02-15T11:36:07;13.44;83.97
75357;HTU21D;63946;51.986;5.930;2024-02-15T11:38:38;13.48;83.81
75357;HTU21D;63946;51.986;5.930;2024-02-15T11:41:09;13.51;83.78
75357;HTU21D;63946;51.986;5.930;2024-02-15T11:46:18;13.60;83.45
75357;HTU21D;63946;51.986;5.930;2024-02-15T11:48:48;13.58;83.45
75357;HTU21D;63946;51.986;5.930;2024-02-15T11:51:33;13.60;83.49
75357;HTU21D;63946;51.986;5.930;2024-02-15T11:54:09;13.65;83.45
75357;HTU21D;63946;51.986;5.930;2024-02-15T11:59:13;13.77;83.10
75357;HTU21D;63946;51.986;5.930;2024-02-15T12:01:58;13.82;83.04
75357;HTU21D;63946;51.986;5.930;2024-02-15T12:04:39;13.88;82.86
75357;HTU21D;63946;51.986;5.930;2024-02-15T12:07:21;13.97;82.69
75357;HTU21D;63946;51.986;5.930;2024-02-15T12:10:02;14.06;82.49
75357;HTU21D;63946;51.986;5.930;2024-02-15T12:12:56;14.10;82.34
75357;HTU21D;63946;51.986;5.930;2024-02-15T12:15:37;14.18;82.18
75357;HTU21D;63946;51.986;5.930;2024-02-15T12:18:18;14.22;82.17
75357;HTU21D;63946;51.986;5.930;2024-02-15T12:20:59;14.28;82.05
75357;HTU21D;63946;51.986;5.930;2024-02-15T12:23:29;14.35;81.97
75357;HTU21D;63946;51.986;5.930;2024-02-15T12:26:01;14.43;81.72
75357;HTU21D;63946;51.986;5.930;2024-02-15T12:28:31;14.44;81.56
75357;HTU21D;63946;51.986;5.930;2024-02-15T12:31:03;14.44;81.49
75357;HTU21D;63946;51.986;5.930;2024-02-15T12:33:33;14.45;81.60
75357;HTU21D;63946;51.986;5.930;2024-02-15T12:36:04;14.48;81.54
75357;HTU21D;63946;51.986;5.930;2024-02-15T12:38:34;14.45;81.46
75357;HTU21D;63946;51.986;5.930;2024-02-15T12:41:19;14.44;81.29
75357;HTU21D;63946;51.986;5.930;2024-02-15T12:43:54;14.45;81.19
75357;HTU21D;63946;51.986;5.930;2024-02-15T12:46:23;14.47;81.11
75357;HTU21D;63946;51.986;5.930;2024-02-15T12:49:06;14.49;80.75
75357;HTU21D;63946;51.986;5.930;2024-02-15T12:51:39;14.55;80.80
75357;HTU21D;63946;51.986;5.930;2024-02-15T12:54:09;14.63;80.63
75357;HTU21D;63946;51.986;5.930;2024-02-15T12:56:40;14.70;80.33
75357;HTU21D;63946;51.986;5.930;2024-02-15T12:59:08;14.75;80.20
75357;HTU21D;63946;51.986;5.930;2024-02-15T13:01:38;14.79;80.04
75357;HTU21D;63946;51.986;5.930;2024-02-15T13:04:06;14.83;79.85
75357;HTU21D;63946;51.986;5.930;2024-02-15T13:06:35;14.87;79.67
75357;HTU21D;63946;51.986;5.930;2024-02-15T13:09:04;14.93;79.49
75357;HTU21D;63946;51.986;5.930;2024-02-15T13:11:33;14.96;79.41
75357;HTU21D;63946;51.986;5.930;2024-02-15T13:14:01;15.02;79.40
75357;HTU21D;63946;51.986;5.930;2024-02-15T13:16:30;15.02;78.87
75357;HTU21D;63946;51.986;5.930;2024-02-15T13:19:00;14.98;78.86
75357;HTU21D;63946;51.986;5.930;2024-02-15T13:21:29;14.99;78.80
75357;HTU21D;63946;51.986;5.930;2024-02-15T13:24:00;14.99;78.78
75357;HTU21D;63946;51.986;5.930;2024-02-15T13:26:30;14.98;78.79
75357;HTU21D;63946;51.986;5.930;2024-02-15T13:28:59;14.97;78.92
75357;HTU21D;63946;51.986;5.930;2024-02-15T13:31:28;14.99;78.76
75357;HTU21D;63946;51.986;5.930;2024-02-15T13:33:57;15.00;78.85
75357;HTU21D;63946;51.986;5.930;2024-02-15T13:36:26;14.99;78.88
75357;HTU21D;63946;51.986;5.930;2024-02-15T13:38:54;14.98;78.83
75357;HTU21D;63946;51.986;5.930;2024-02-15T13:41:23;14.94;78.79
75357;HTU21D;63946;51.986;5.930;2024-02-15T13:43:52;14.95;78.79
75357;HTU21D;63946;51.986;5.930;2024-02-15T13:46:21;14.94;78.77
75357;HTU21D;63946;51.986;5.930;2024-02-15T13:48:50;14.97;78.74
75357;HTU21D;63946;51.986;5.930;2024-02-15T13:51:19;14.97;78.63
75357;HTU21D;63946;51.986;5.930;2024-02-15T13:53:47;14.96;78.56
75357;HTU21D;63946;51.986;5.930;2024-02-15T13:56:16;15.00;78.30
75357;HTU21D;63946;51.986;5.930;2024-02-15T13:58:45;14.99;78.08
75357;HTU21D;63946;51.986;5.930;2024-02-15T14:01:14;15.01;78.01
75357;HTU21D;63946;51.986;5.930;2024-02-15T14:03:44;15.01;77.78
75357;HTU21D;63946;51.986;5.930;2024-02-15T14:06:13;15.00;77.76
75357;HTU21D;63946;51.986;5.930;2024-02-15T14:08:41;15.00;77.67
75357;HTU21D;63946;51.986;5.930;2024-02-15T14:11:10;15.02;77.69
75357;HTU21D;63946;51.986;5.930;2024-02-15T14:13:40;15.03;77.80
75357;HTU21D;63946;51.986;5.930;2024-02-15T14:16:08;15.09;77.62
75357;HTU21D;63946;51.986;5.930;2024-02-15T14:18:38;15.13;77.34
75357;HTU21D;63946;51.986;5.930;2024-02-15T14:21:10;15.18;77.26
75357;HTU21D;63946;51.986;5.930;2024-02-15T14:23:42;15.23;77.21
75357;HTU21D;63946;51.986;5.930;2024-02-15T14:26:11;15.26;77.15
75357;HTU21D;63946;51.986;5.930;2024-02-15T14:28:40;15.29;77.05
75357;HTU21D;63946;51.986;5.930;2024-02-15T14:31:11;15.29;76.83
75357;HTU21D;63946;51.986;5.930;2024-02-15T14:33:52;15.30;76.85
75357;HTU21D;63946;51.986;5.930;2024-02-15T14:36:20;15.32;76.69
75357;HTU21D;63946;51.986;5.930;2024-02-15T14:38:50;15.31;76.71
75357;HTU21D;63946;51.986;5.930;2024-02-15T14:41:20;15.29;76.69
75357;HTU21D;63946;51.986;5.930;2024-02-15T14:43:49;15.28;76.79
75357;HTU21D;63946;51.986;5.930;2024-02-15T14:46:20;15.26;76.92
75357;HTU21D;63946;51.986;5.930;2024-02-15T14:48:49;15.25;77.06
75357;HTU21D;63946;51.986;5.930;2024-02-15T14:51:20;15.25;77.03
75357;HTU21D;63946;51.986;5.930;2024-02-15T14:53:49;15.24;76.85
75357;HTU21D;63946;51.986;5.930;2024-02-15T14:56:21;15.23;76.95
75357;HTU21D;63946;51.986;5.930;2024-02-15T14:58:50;15.23;77.05
75357;HTU21D;63946;51.986;5.930;2024-02-15T15:01:20;15.26;77.15
75357;HTU21D;63946;51.986;5.930;2024-02-15T15:03:56;15.25;77.11
75357;HTU21D;63946;51.986;5.930;2024-02-15T15:06:29;15.24;77.27
75357;HTU21D;63946;51.986;5.930;2024-02-15T15:09:10;15.23;77.26
75357;HTU21D;63946;51.986;5.930;2024-02-15T15:11:51;15.23;77.01
75357;HTU21D;63946;51.986;5.930;2024-02-15T15:14:32;15.21;77.03
75357;HTU21D;63946;51.986;5.930;2024-02-15T15:17:03;15.24;76.89
75357;HTU21D;63946;51.986;5.930;2024-02-15T15:19:32;15.23;76.95
75357;HTU21D;63946;51.986;5.930;2024-02-15T15:22:04;15.19;77.02
75357;HTU21D;63946;51.986;5.930;2024-02-15T15:24:33;15.19;77.05
75357;HTU21D;63946;51.986;5.930;2024-02-15T15:27:02;15.19;77.13
75357;HTU21D;63946;51.986;5.930;2024-02-15T15:29:33;15.17;77.11
75357;HTU21D;63946;51.986;5.930;2024-02-15T15:32:02;15.17;76.92
75357;HTU21D;63946;51.986;5.930;2024-02-15T15:34:31;15.18;76.88
75357;HTU21D;63946;51.986;5.930;2024-02-15T15:37:00;15.17;76.96
75357;HTU21D;63946;51.986;5.930;2024-02-15T15:39:29;15.18;76.98
75357;HTU21D;63946;51.986;5.930;2024-02-15T15:42:01;15.15;77.05
75357;HTU21D;63946;51.986;5.930;2024-02-15T15:44:33;15.14;77.15
75357;HTU21D;63946;51.986;5.930;2024-02-15T15:47:02;15.11;77.19
75357;HTU21D;63946;51.986;5.930;2024-02-15T15:49:31;15.10;77.29
75357;HTU21D;63946;51.986;5.930;2024-02-15T15:52:00;15.10;77.32
75357;HTU21D;63946;51.986;5.930;2024-02-15T15:54:29;15.08;77.31
75357;HTU21D;63946;51.986;5.930;2024-02-15T15:56:59;15.07;77.32
75357;HTU21D;63946;51.986;5.930;2024-02-15T15:59:29;15.03;77.38
75357;HTU21D;63946;51.986;5.930;2024-02-15T16:01:58;15.01;77.34
75357;HTU21D;63946;51.986;5.930;2024-02-15T16:04:27;14.99;77.22
75357;HTU21D;63946;51.986;5.930;2024-02-15T16:06:56;14.97;77.20
75357;HTU21D;63946;51.986;5.930;2024-02-15T16:09:25;14.96;77.24
75357;HTU21D;63946;51.986;5.930;2024-02-15T16:11:53;14.97;77.08
75357;HTU21D;63946;51.986;5.930;2024-02-15T16:14:24;14.97;77.04
75357;HTU21D;63946;51.986;5.930;2024-02-15T16:16:53;14.93;77.05
75357;HTU21D;63946;51.986;5.930;2024-02-15T16:19:23;14.89;77.23
75357;HTU21D;63946;51.986;5.930;2024-02-15T16:21:52;14.87;77.32
75357;HTU21D;63946;51.986;5.930;2024-02-15T16:24:20;14.84;77.41
75357;HTU21D;63946;51.986;5.930;2024-02-15T16:26:49;14.81;77.42
75357;HTU21D;63946;51.986;5.930;2024-02-15T16:29:19;14.78;77.42
75357;HTU21D;63946;51.986;5.930;2024-02-15T16:31:48;14.77;77.17
75357;HTU21D;63946;51.986;5.930;2024-02-15T16:34:16;14.78;76.89
75357;HTU21D;63946;51.986;5.930;2024-02-15T16:36:46;14.78;76.70
75357;HTU21D;63946;51.986;5.930;2024-02-15T16:39:15;14.79;76.38
75357;HTU21D;63946;51.986;5.930;2024-02-15T16:41:49;14.80;75.87
75357;HTU21D;63946;51.986;5.930;2024-02-15T16:44:18;14.79;75.80
75357;HTU21D;63946;51.986;5.930;2024-02-15T16:46:49;14.78;75.54
75357;HTU21D;63946;51.986;5.930;2024-02-15T16:49:19;14.79;75.28
75357;HTU21D;63946;51.986;5.930;2024-02-15T16:51:48;14.78;75.22
75357;HTU21D;63946;51.986;5.930;2024-02-15T16:54:17;14.77;75.36
75357;HTU21D;63946;51.986;5.930;2024-02-15T16:56:45;14.71;75.47
75357;HTU21D;63946;51.986;5.930;2024-02-15T16:59:16;14.65;75.63
75357;HTU21D;63946;51.986;5.930;2024-02-15T17:01:45;14.64;75.76
75357;HTU21D;63946;51.986;5.930;2024-02-15T17:04:14;14.57;75.96
75357;HTU21D;63946;51.986;5.930;2024-02-15T17:06:44;14.54;76.05
75357;HTU21D;63946;51.986;5.930;2024-02-15T17:09:12;14.49;76.21
75357;HTU21D;63946;51.986;5.930;2024-02-15T17:11:41;14.43;76.29
75357;HTU21D;63946;51.986;5.930;2024-02-15T17:14:13;14.42;76.44
75357;HTU21D;63946;51.986;5.930;2024-02-15T17:16:42;14.42;76.50
75357;HTU21D;63946;51.986;5.930;2024-02-15T17:19:12;14.39;76.57
75357;HTU21D;63946;51.986;5.930;2024-02-15T17:21:41;14.36;76.73
75357;HTU21D;63946;51.986;5.930;2024-02-15T17:24:13;14.33;76.93
75357;HTU21D;63946;51.986;5.930;2024-02-15T17:26:44;14.27;77.02
75357;HTU21D;63946;51.986;5.930;2024-02-15T17:29:13;14.25;77.07
75357;HTU21D;63946;51.986;5.930;2024-02-15T17:31:41;14.25;77.08
75357;HTU21D;63946;51.986;5.930;2024-02-15T17:34:11;14.22;77.20
75357;HTU21D;63946;51.986;5.930;2024-02-15T17:36:40;14.22;77.27
75357;HTU21D;63946;51.986;5.930;2024-02-15T17:39:10;14.19;77.38
75357;HTU21D;63946;51.986;5.930;2024-02-15T17:41:40;14.19;77.28
75357;HTU21D;63946;51.986;5.930;2024-02-15T17:44:14;14.20;77.29
75357;HTU21D;63946;51.986;5.930;2024-02-15T17:46:43;14.18;77.32
75357;HTU21D;63946;51.986;5.930;2024-02-15T17:49:12;14.15;77.27
75357;HTU21D;63946;51.986;5.930;2024-02-15T17:51:42;14.11;77.45
75357;HTU21D;63946;51.986;5.930;2024-02-15T17:54:13;14.09;77.41
75357;HTU21D;63946;51.986;5.930;2024-02-15T17:56:42;14.11;77.23
75357;HTU21D;63946;51.986;5.930;2024-02-15T17:59:13;14.10;77.15
75357;HTU21D;63946;51.986;5.930;2024-02-15T18:01:42;14.08;77.11
75357;HTU21D;63946;51.986;5.930;2024-02-15T18:04:14;14.06;76.90
75357;HTU21D;63946;51.986;5.930;2024-02-15T18:06:43;14.03;76.94
75357;HTU21D;63946;51.986;5.930;2024-02-15T18:09:12;14.00;76.91
75357;HTU21D;63946;51.986;5.930;2024-02-15T18:11:41;13.98;76.82
75357;HTU21D;63946;51.986;5.930;2024-02-15T18:14:10;13.97;76.75
75357;HTU21D;63946;51.986;5.930;2024-02-15T18:16:39;13.96;76.57
75357;HTU21D;63946;51.986;5.930;2024-02-15T18:19:08;13.98;76.44
75357;HTU21D;63946;51.986;5.930;2024-02-15T18:21:36;13.98;76.30
75357;HTU21D;63946;51.986;5.930;2024-02-15T18:24:05;13.98;76.13
75357;HTU21D;63946;51.986;5.930;2024-02-15T18:26:37;13.97;75.96
75357;HTU21D;63946;51.986;5.930;2024-02-15T18:29:06;13.96;75.96
75357;HTU21D;63946;51.986;5.930;2024-02-15T18:31:39;13.95;75.69
75357;HTU21D;63946;51.986;5.930;2024-02-15T18:34:10;13.95;75.63
75357;HTU21D;63946;51.986;5.930;2024-02-15T18:36:39;13.89;75.51
75357;HTU21D;63946;51.986;5.930;2024-02-15T18:39:11;13.89;75.45
75357;HTU21D;63946;51.986;5.930;2024-02-15T18:41:39;13.88;75.44
75357;HTU21D;63946;51.986;5.930;2024-02-15T18:44:12;13.86;75.29
75357;HTU21D;63946;51.986;5.930;2024-02-15T18:46:41;13.86;74.94
75357;HTU21D;63946;51.986;5.930;2024-02-15T18:49:10;13.86;74.70
75357;HTU21D;63946;51.986;5.930;2024-02-15T18:51:39;13.86;74.64
75357;HTU21D;63946;51.986;5.930;2024-02-15T18:54:11;13.85;74.65
75357;HTU21D;63946;51.986;5.930;2024-02-15T18:56:44;13.83;74.55
75357;HTU21D;63946;51.986;5.930;2024-02-15T18:59:15;13.77;74.78
75357;HTU21D;63946;51.986;5.930;2024-02-15T19:01:46;13.74;74.88
75357;HTU21D;63946;51.986;5.930;2024-02-15T19:04:15;13.74;74.68
75357;HTU21D;63946;51.986;5.930;2024-02-15T19:06:44;13.75;74.59
75357;HTU21D;63946;51.986;5.930;2024-02-15T19:09:13;13.73;74.62
75357;HTU21D;63946;51.986;5.930;2024-02-15T19:11:43;13.71;74.54
75357;HTU21D;63946;51.986;5.930;2024-02-15T19:14:15;13.68;74.56
75357;HTU21D;63946;51.986;5.930;2024-02-15T19:16:44;13.67;74.51
75357;HTU21D;63946;51.986;5.930;2024-02-15T19:19:13;13.67;74.47
75357;HTU21D;63946;51.986;5.930;2024-02-15T19:21:47;13.68;74.48
75357;HTU21D;63946;51.986;5.930;2024-02-15T19:24:17;13.64;74.64
75357;HTU21D;63946;51.986;5.930;2024-02-15T19:26:46;13.65;74.56
75357;HTU21D;63946;51.986;5.930;2024-02-15T19:29:14;13.65;74.53
75357;HTU21D;63946;51.986;5.930;2024-02-15T19:31:58;13.66;74.44
75357;HTU21D;63946;51.986;5.930;2024-02-15T19:34:28;13.66;74.44
75357;HTU21D;63946;51.986;5.930;2024-02-15T19:36:57;13.65;74.43
75357;HTU21D;63946;51.986;5.930;2024-02-15T19:39:28;13.67;74.25
75357;HTU21D;63946;51.986;5.930;2024-02-15T19:41:58;13.67;74.34
75357;HTU21D;63946;51.986;5.930;2024-02-15T19:44:27;13.66;74.40
75357;HTU21D;63946;51.986;5.930;2024-02-15T19:46:59;13.68;74.32
75357;HTU21D;63946;51.986;5.930;2024-02-15T19:49:32;13.67;74.32
75357;HTU21D;63946;51.986;5.930;2024-02-15T19:52:01;13.65;74.30
75357;HTU21D;63946;51.986;5.930;2024-02-15T19:54:31;13.66;74.38
75357;HTU21D;63946;51.986;5.930;2024-02-15T19:57:00;13.62;74.30
75357;HTU21D;63946;51.986;5.930;2024-02-15T19:59:32;13.62;74.28
75357;HTU21D;63946;51.986;5.930;2024-02-15T20:02:02;13.60;74.41
75357;HTU21D;63946;51.986;5.930;2024-02-15T20:04:31;13.58;74.54
75357;HTU21D;63946;51.986;5.930;2024-02-15T20:07:03;13.54;74.68
75357;HTU21D;63946;51.986;5.930;2024-02-15T20:09:33;13.49;74.87
75357;HTU21D;63946;51.986;5.930;2024-02-15T20:12:02;13.41;75.03
75357;HTU21D;63946;51.986;5.930;2024-02-15T20:14:36;13.39;75.01
75357;HTU21D;63946;51.986;5.930;2024-02-15T20:17:06;13.37;75.08
75357;HTU21D;63946;51.986;5.930;2024-02-15T20:19:36;13.35;75.19
75357;HTU21D;63946;51.986;5.930;2024-02-15T20:22:04;13.33;75.24
75357;HTU21D;63946;51.986;5.930;2024-02-15T20:24:33;13.30;75.25
75357;HTU21D;63946;51.986;5.930;2024-02-15T20:27:03;13.27;75.31
75357;HTU21D;63946;51.986;5.930;2024-02-15T20:29:32;13.29;75.34
75357;HTU21D;63946;51.986;5.930;2024-02-15T20:32:04;13.25;75.47
75357;HTU21D;63946;51.986;5.930;2024-02-15T20:34:33;13.23;75.53
75357;HTU21D;63946;51.986;5.930;2024-02-15T20:37:02;13.22;75.41
75357;HTU21D;63946;51.986;5.930;2024-02-15T20:39:31;13.21;75.48
75357;HTU21D;63946;51.986;5.930;2024-02-15T20:42:02;13.20;75.44
75357;HTU21D;63946;51.986;5.930;2024-02-15T20:44:28;13.19;75.50
75357;HTU21D;63946;51.986;5.930;2024-02-15T20:46:57;13.18;75.58
75357;HTU21D;63946;51.986;5.930;2024-02-15T20:49:30;13.19;75.41
75357;HTU21D;63946;51.986;5.930;2024-02-15T20:51:59;13.21;75.25
75357;HTU21D;63946;51.986;5.930;2024-02-15T20:54:28;13.22;75.11
75357;HTU21D;63946;51.986;5.930;2024-02-15T20:56:58;13.20;75.09
75357;HTU21D;63946;51.986;5.930;2024-02-15T20:59:27;13.18;75.03
75357;HTU21D;63946;51.986;5.930;2024-02-15T21:01:56;13.19;74.98
75357;HTU21D;63946;51.986;5.930;2024-02-15T21:04:26;13.17;74.95
75357;HTU21D;63946;51.986;5.930;2024-02-15T21:06:55;13.15;74.96
75357;HTU21D;63946;51.986;5.930;2024-02-15T21:09:24;13.15;74.82
75357;HTU21D;63946;51.986;5.930;2024-02-15T21:11:52;13.11;74.86
75357;HTU21D;63946;51.986;5.930;2024-02-15T21:14:21;13.10;74.80
75357;HTU21D;63946;51.986;5.930;2024-02-15T21:16:50;13.12;74.57
75357;HTU21D;63946;51.986;5.930;2024-02-15T21:19:26;13.16;74.25
75357;HTU21D;63946;51.986;5.930;2024-02-15T21:21:56;13.16;74.09